sensor_id;sensor_type;location;lat;lon;timestamp;temperature;humidity
75262;DHT22;63859;51.064;4.580;2022-10-31T00:01:21;14.20;99.90
75262;DHT22;63859;51.064;4.580;2022-10-31T00:03:48;14.10;99.90
75262;DHT22;63859;51.064;4.580;2022-10-31T00:06:14;14.10;99.90
75262;DHT22;63859;51.064;4.580;2022-10-31T00:08:39;14.10;99.90
75262;DHT22;63859;51.064;4.580;2022-10-31T00:11:09;14.10;99.90
75262;DHT22;63859;51.064;4.580;2022-10-31T00:13:35;14.10;99.90
75262;DHT22;63859;51.064;4.580;2022-10-31T00:16:00;14.00;99.90
75262;DHT22;63859;51.064;4.580;2022-10-31T00:18:26;14.00;99.90
75262;DHT22;63859;51.064;4.580;2022-10-31T00:21:02;14.10;99.90
75262;DHT22;63859;51.064;4.580;2022-10-31T00:23:28;14.10;99.90
75262;DHT22;63859;51.064;4.580;2022-10-31T00:25:53;14.10;99.90
75262;DHT22;63859;51.064;4.580;2022-10-31T00:28:19;14.10;99.90
75262;DHT22;63859;51.064;4.580;2022-10-31T00:30:46;14.10;99.90
75262;DHT22;63859;51.064;4.580;2022-10-31T00:33:11;14.10;99.90
75262;DHT22;63859;51.064;4.580;2022-10-31T00:35:37;14.00;99.90
75262;DHT22;63859;51.064;4.580;2022-10-31T00:38:02;14.00;99.90
75262;DHT22;63859;51.064;4.580;2022-10-31T00:40:28;14.00;99.90
75262;DHT22;63859;51.064;4.580;2022-10-31T00:42:53;14.00;99.90
75262;DHT22;63859;51.064;4.580;2022-10-31T00:45:19;14.00;99.90
75262;DHT22;63859;51.064;4.580;2022-10-31T00:47:45;14.00;99.90
75262;DHT22;63859;51.064;4.580;2022-10-31T00:50:10;14.00;99.90
75262;DHT22;63859;51.064;4.580;2022-10-31T00:52:36;13.90;99.90
75262;DHT22;63859;51.064;4.580;2022-10-31T00:55:01;13.90;99.90
75262;DHT22;63859;51.064;4.580;2022-10-31T00:57:27;13.90;99.90
75262;DHT22;63859;51.064;4.580;2022-10-31T00:59:53;13.80;99.90
75262;DHT22;63859;51.064;4.580;2022-10-31T01:02:18;13.80;99.90
75262;DHT22;63859;51.064;4.580;2022-10-31T01:04:44;13.70;99.90
75262;DHT22;63859;51.064;4.580;2022-10-31T01:07:09;13.70;99.90
75262;DHT22;63859;51.064;4.580;2022-10-31T01:09:37;13.70;99.90
75262;DHT22;63859;51.064;4.580;2022-10-31T01:12:03;13.70;99.90
75262;DHT22;63859;51.064;4.580;2022-10-31T01:14:29;13.70;99.90
75262;DHT22;63859;51.064;4.580;2022-10-31T01:16:54;13.60;99.90
75262;DHT22;63859;51.064;4.580;2022-10-31T01:19:20;13.60;99.90
75262;DHT22;63859;51.064;4.580;2022-10-31T01:21:45;13.70;99.90
75262;DHT22;63859;51.064;4.580;2022-10-31T01:24:11;13.60;99.90
75262;DHT22;63859;51.064;4.580;2022-10-31T01:26:36;13.70;99.90
75262;DHT22;63859;51.064;4.580;2022-10-31T01:29:07;13.60;99.90
75262;DHT22;63859;51.064;4.580;2022-10-31T01:31:35;13.60;99.90
75262;DHT22;63859;51.064;4.580;2022-10-31T01:34:01;13.60;99.90
75262;DHT22;63859;51.064;4.580;2022-10-31T01:36:30;13.60;99.90
75262;DHT22;63859;51.064;4.580;2022-10-31T01:38:58;13.60;99.90
75262;DHT22;63859;51.064;4.580;2022-10-31T01:41:30;13.50;99.90
75262;DHT22;63859;51.064;4.580;2022-10-31T01:43:59;13.50;99.90
75262;DHT22;63859;51.064;4.580;2022-10-31T01:46:31;13.50;99.90
75262;DHT22;63859;51.064;4.580;2022-10-31T01:49:01;13.50;99.90
75262;DHT22;63859;51.064;4.580;2022-10-31T01:51:34;13.50;99.90
75262;DHT22;63859;51.064;4.580;2022-10-31T01:54:06;13.50;99.90
75262;DHT22;63859;51.064;4.580;2022-10-31T01:56:36;13.50;99.90
75262;DHT22;63859;51.064;4.580;2022-10-31T01:59:07;13.40;99.90
75262;DHT22;63859;51.064;4.580;2022-10-31T02:01:34;13.30;99.90
75262;DHT22;63859;51.064;4.580;2022-10-31T02:04:00;13.30;99.90
75262;DHT22;63859;51.064;4.580;2022-10-31T02:06:37;13.30;99.90
75262;DHT22;63859;51.064;4.580;2022-10-31T02:09:05;13.30;99.90
75262;DHT22;63859;51.064;4.580;2022-10-31T02:11:31;13.30;99.90
75262;DHT22;63859;51.064;4.580;2022-10-31T02:13:59;13.30;99.90
75262;DHT22;63859;51.064;4.580;2022-10-31T02:16:25;13.30;99.90
75262;DHT22;63859;51.064;4.580;2022-10-31T02:18:51;13.30;99.90
75262;DHT22;63859;51.064;4.580;2022-10-31T02:21:41;13.30;99.90
75262;DHT22;63859;51.064;4.580;2022-10-31T02:27:16;13.30;99.90
75262;DHT22;63859;51.064;4.580;2022-10-31T02:30:00;13.30;99.90
75262;DHT22;63859;51.064;4.580;2022-10-31T02:35:44;13.30;99.90
75262;DHT22;63859;51.064;4.580;2022-10-31T02:41:32;13.20;99.90
75262;DHT22;63859;51.064;4.580;2022-10-31T02:46:59;13.10;99.90
75262;DHT22;63859;51.064;4.580;2022-10-31T02:49:38;13.10;99.90
75262;DHT22;63859;51.064;4.580;2022-10-31T02:52:18;13.10;99.90
75262;DHT22;63859;51.064;4.580;2022-10-31T02:54:45;13.10;99.90
75262;DHT22;63859;51.064;4.580;2022-10-31T02:57:13;13.10;99.90
75262;DHT22;63859;51.064;4.580;2022-10-31T02:59:48;13.00;99.90
75262;DHT22;63859;51.064;4.580;2022-10-31T03:05:20;13.00;99.90
75262;DHT22;63859;51.064;4.580;2022-10-31T03:13:47;13.00;99.90
75262;DHT22;63859;51.064;4.580;2022-10-31T03:19:08;13.00;99.90
75262;DHT22;63859;51.064;4.580;2022-10-31T03:21:44;12.90;99.90
75262;DHT22;63859;51.064;4.580;2022-10-31T03:24:12;12.90;99.90
75262;DHT22;63859;51.064;4.580;2022-10-31T03:26:43;12.80;99.90
75262;DHT22;63859;51.064;4.580;2022-10-31T03:29:14;12.80;99.90
75262;DHT22;63859;51.064;4.580;2022-10-31T03:31:49;12.80;99.90
75262;DHT22;63859;51.064;4.580;2022-10-31T03:34:18;12.70;99.90
75262;DHT22;63859;51.064;4.580;2022-10-31T03:36:46;12.70;99.90
75262;DHT22;63859;51.064;4.580;2022-10-31T03:39:15;12.70;99.90
75262;DHT22;63859;51.064;4.580;2022-10-31T03:41:52;12.80;99.90
75262;DHT22;63859;51.064;4.580;2022-10-31T03:44:20;12.70;99.90
75262;DHT22;63859;51.064;4.580;2022-10-31T03:46:47;12.70;99.90
75262;DHT22;63859;51.064;4.580;2022-10-31T03:49:13;12.80;99.90
75262;DHT22;63859;51.064;4.580;2022-10-31T03:51:47;12.70;99.90
75262;DHT22;63859;51.064;4.580;2022-10-31T03:54:24;12.80;99.90
75262;DHT22;63859;51.064;4.580;2022-10-31T03:56:55;12.70;99.90
75262;DHT22;63859;51.064;4.580;2022-10-31T03:59:36;12.70;99.90
75262;DHT22;63859;51.064;4.580;2022-10-31T04:02:06;12.70;99.90
75262;DHT22;63859;51.064;4.580;2022-10-31T04:04:33;12.70;99.90
75262;DHT22;63859;51.064;4.580;2022-10-31T04:07:00;12.60;99.90
75262;DHT22;63859;51.064;4.580;2022-10-31T04:09:27;12.70;99.90
75262;DHT22;63859;51.064;4.580;2022-10-31T04:11:56;12.70;99.90
75262;DHT22;63859;51.064;4.580;2022-10-31T04:14:26;12.60;99.90
75262;DHT22;63859;51.064;4.580;2022-10-31T04:16:53;12.60;99.90
75262;DHT22;63859;51.064;4.580;2022-10-31T04:19:19;12.70;99.90
75262;DHT22;63859;51.064;4.580;2022-10-31T04:21:45;12.70;99.90
75262;DHT22;63859;51.064;4.580;2022-10-31T04:24:11;12.70;99.90
75262;DHT22;63859;51.064;4.580;2022-10-31T04:26:36;12.70;99.90
75262;DHT22;63859;51.064;4.580;2022-10-31T04:29:02;12.60;99.90
75262;DHT22;63859;51.064;4.580;2022-10-31T04:31:28;12.70;99.90
75262;DHT22;63859;51.064;4.580;2022-10-31T04:33:54;12.60;99.90
75262;DHT22;63859;51.064;4.580;2022-10-31T04:36:19;12.60;99.90
75262;DHT22;63859;51.064;4.580;2022-10-31T04:38:45;12.70;99.90
75262;DHT22;63859;51.064;4.580;2022-10-31T04:41:10;12.60;99.90
75262;DHT22;63859;51.064;4.580;2022-10-31T04:43:36;12.60;99.90
75262;DHT22;63859;51.064;4.580;2022-10-31T04:46:02;12.60;99.90
75262;DHT22;63859;51.064;4.580;2022-10-31T04:48:27;12.60;99.90
75262;DHT22;63859;51.064;4.580;2022-10-31T04:50:58;12.50;99.90
75262;DHT22;63859;51.064;4.580;2022-10-31T04:53:24;12.50;99.90
75262;DHT22;63859;51.064;4.580;2022-10-31T04:55:50;12.60;99.90
75262;DHT22;63859;51.064;4.580;2022-10-31T04:58:15;12.50;99.90
75262;DHT22;63859;51.064;4.580;2022-10-31T05:00:41;12.50;99.90
75262;DHT22;63859;51.064;4.580;2022-10-31T05:03:06;12.50;99.90
75262;DHT22;63859;51.064;4.580;2022-10-31T05:05:32;12.50;99.90
75262;DHT22;63859;51.064;4.580;2022-10-31T05:07:57;12.50;99.90
75262;DHT22;63859;51.064;4.580;2022-10-31T05:10:25;12.50;99.90
75262;DHT22;63859;51.064;4.580;2022-10-31T05:12:53;12.50;99.90
75262;DHT22;63859;51.064;4.580;2022-10-31T05:15:21;12.50;99.90
75262;DHT22;63859;51.064;4.580;2022-10-31T05:17:47;12.60;99.90
75262;DHT22;63859;51.064;4.580;2022-10-31T05:20:14;12.50;99.90
75262;DHT22;63859;51.064;4.580;2022-10-31T05:22:48;12.50;99.90
75262;DHT22;63859;51.064;4.580;2022-10-31T05:25:15;12.50;99.90
75262;DHT22;63859;51.064;4.580;2022-10-31T05:27:42;12.50;99.90
75262;DHT22;63859;51.064;4.580;2022-10-31T05:30:09;12.50;99.90
75262;DHT22;63859;51.064;4.580;2022-10-31T05:32:43;12.50;99.90
75262;DHT22;63859;51.064;4.580;2022-10-31T05:35:11;12.50;99.90
75262;DHT22;63859;51.064;4.580;2022-10-31T05:37:38;12.40;99.90
75262;DHT22;63859;51.064;4.580;2022-10-31T05:40:05;12.50;99.90
75262;DHT22;63859;51.064;4.580;2022-10-31T05:42:32;12.50;99.90
75262;DHT22;63859;51.064;4.580;2022-10-31T05:44:57;12.50;99.90
75262;DHT22;63859;51.064;4.580;2022-10-31T05:47:23;12.50;99.90
75262;DHT22;63859;51.064;4.580;2022-10-31T05:49:49;12.50;99.90
75262;DHT22;63859;51.064;4.580;2022-10-31T05:52:14;12.50;99.90
75262;DHT22;63859;51.064;4.580;2022-10-31T05:54:40;12.50;99.90
75262;DHT22;63859;51.064;4.580;2022-10-31T05:57:06;12.40;99.90
75262;DHT22;63859;51.064;4.580;2022-10-31T05:59:32;12.40;99.90
75262;DHT22;63859;51.064;4.580;2022-10-31T06:01:57;12.40;99.90
75262;DHT22;63859;51.064;4.580;2022-10-31T06:04:23;12.40;99.90
75262;DHT22;63859;51.064;4.580;2022-10-31T06:06:48;12.40;99.90
75262;DHT22;63859;51.064;4.580;2022-10-31T06:09:14;12.40;99.90
75262;DHT22;63859;51.064;4.580;2022-10-31T06:11:39;12.30;99.90
75262;DHT22;63859;51.064;4.580;2022-10-31T06:14:05;12.30;99.90
75262;DHT22;63859;51.064;4.580;2022-10-31T06:16:31;12.30;99.90
75262;DHT22;63859;51.064;4.580;2022-10-31T06:18:57;12.40;99.90
75262;DHT22;63859;51.064;4.580;2022-10-31T06:21:22;12.30;99.90
75262;DHT22;63859;51.064;4.580;2022-10-31T06:23:48;12.30;99.90
75262;DHT22;63859;51.064;4.580;2022-10-31T06:26:14;12.30;99.90
75262;DHT22;63859;51.064;4.580;2022-10-31T06:28:39;12.30;99.90
75262;DHT22;63859;51.064;4.580;2022-10-31T06:31:06;12.30;99.90
75262;DHT22;63859;51.064;4.580;2022-10-31T06:33:32;12.30;99.90
75262;DHT22;63859;51.064;4.580;2022-10-31T06:35:57;12.30;99.90
75262;DHT22;63859;51.064;4.580;2022-10-31T06:38:24;12.30;99.90
75262;DHT22;63859;51.064;4.580;2022-10-31T06:40:50;12.30;99.90
75262;DHT22;63859;51.064;4.580;2022-10-31T06:43:15;12.30;99.90
75262;DHT22;63859;51.064;4.580;2022-10-31T06:45:41;12.30;99.90
75262;DHT22;63859;51.064;4.580;2022-10-31T06:48:07;12.30;99.90
75262;DHT22;63859;51.064;4.580;2022-10-31T06:50:32;12.30;99.90
75262;DHT22;63859;51.064;4.580;2022-10-31T06:52:58;12.30;99.90
75262;DHT22;63859;51.064;4.580;2022-10-31T06:55:25;12.30;99.90
75262;DHT22;63859;51.064;4.580;2022-10-31T06:57:52;12.30;99.90
75262;DHT22;63859;51.064;4.580;2022-10-31T07:00:18;12.30;99.90
75262;DHT22;63859;51.064;4.580;2022-10-31T07:05:21;12.40;99.90
75262;DHT22;63859;51.064;4.580;2022-10-31T07:07:46;12.40;99.90
75262;DHT22;63859;51.064;4.580;2022-10-31T07:10:12;12.40;99.90
75262;DHT22;63859;51.064;4.580;2022-10-31T07:12:38;12.40;99.90
75262;DHT22;63859;51.064;4.580;2022-10-31T07:15:04;12.40;99.90
75262;DHT22;63859;51.064;4.580;2022-10-31T07:17:30;12.40;99.90
75262;DHT22;63859;51.064;4.580;2022-10-31T07:19:56;12.50;99.90
75262;DHT22;63859;51.064;4.580;2022-10-31T07:22:21;12.50;99.90
75262;DHT22;63859;51.064;4.580;2022-10-31T07:24:47;12.50;99.90
75262;DHT22;63859;51.064;4.580;2022-10-31T07:27:12;12.60;99.90
75262;DHT22;63859;51.064;4.580;2022-10-31T07:29:38;12.70;99.90
75262;DHT22;63859;51.064;4.580;2022-10-31T07:32:04;12.60;99.90
75262;DHT22;63859;51.064;4.580;2022-10-31T07:34:29;12.60;99.90
75262;DHT22;63859;51.064;4.580;2022-10-31T07:36:55;12.60;99.90
75262;DHT22;63859;51.064;4.580;2022-10-31T07:39:20;12.60;99.90
75262;DHT22;63859;51.064;4.580;2022-10-31T07:41:46;12.60;99.90
75262;DHT22;63859;51.064;4.580;2022-10-31T07:44:11;12.70;99.90
75262;DHT22;63859;51.064;4.580;2022-10-31T07:46:37;12.70;99.90
75262;DHT22;63859;51.064;4.580;2022-10-31T07:49:03;12.70;99.90
75262;DHT22;63859;51.064;4.580;2022-10-31T07:51:29;12.80;99.90
75262;DHT22;63859;51.064;4.580;2022-10-31T07:53:54;12.80;99.90
75262;DHT22;63859;51.064;4.580;2022-10-31T07:56:20;12.80;99.90
75262;DHT22;63859;51.064;4.580;2022-10-31T07:58:45;12.80;99.90
75262;DHT22;63859;51.064;4.580;2022-10-31T08:01:11;12.90;99.90
75262;DHT22;63859;51.064;4.580;2022-10-31T08:03:37;12.90;99.90
75262;DHT22;63859;51.064;4.580;2022-10-31T08:06:02;12.90;99.90
75262;DHT22;63859;51.064;4.580;2022-10-31T08:08:28;12.90;99.90
75262;DHT22;63859;51.064;4.580;2022-10-31T08:10:54;12.90;99.90
75262;DHT22;63859;51.064;4.580;2022-10-31T08:13:20;12.90;99.90
75262;DHT22;63859;51.064;4.580;2022-10-31T08:15:46;12.90;99.90
75262;DHT22;63859;51.064;4.580;2022-10-31T08:18:16;13.00;99.90
75262;DHT22;63859;51.064;4.580;2022-10-31T08:20:42;13.00;99.90
75262;DHT22;63859;51.064;4.580;2022-10-31T08:23:10;13.00;99.90
75262;DHT22;63859;51.064;4.580;2022-10-31T08:25:36;13.10;99.90
75262;DHT22;63859;51.064;4.580;2022-10-31T08:28:02;13.10;99.90
75262;DHT22;63859;51.064;4.580;2022-10-31T08:30:30;13.20;99.90
75262;DHT22;63859;51.064;4.580;2022-10-31T08:33:00;13.20;99.90
75262;DHT22;63859;51.064;4.580;2022-10-31T08:35:27;13.10;99.90
75262;DHT22;63859;51.064;4.580;2022-10-31T08:37:56;13.20;99.90
75262;DHT22;63859;51.064;4.580;2022-10-31T08:40:23;13.30;99.90
75262;DHT22;63859;51.064;4.580;2022-10-31T08:43:16;13.30;99.90
75262;DHT22;63859;51.064;4.580;2022-10-31T08:45:42;13.30;99.90
75262;DHT22;63859;51.064;4.580;2022-10-31T08:48:12;13.40;99.90
75262;DHT22;63859;51.064;4.580;2022-10-31T08:50:39;13.40;99.90
75262;DHT22;63859;51.064;4.580;2022-10-31T08:53:10;13.40;99.90
75262;DHT22;63859;51.064;4.580;2022-10-31T08:55:37;13.40;99.90
75262;DHT22;63859;51.064;4.580;2022-10-31T08:58:05;13.40;99.90
75262;DHT22;63859;51.064;4.580;2022-10-31T09:00:32;13.50;99.90
75262;DHT22;63859;51.064;4.580;2022-10-31T09:02:59;13.50;99.90
75262;DHT22;63859;51.064;4.580;2022-10-31T09:05:25;13.50;99.90
75262;DHT22;63859;51.064;4.580;2022-10-31T09:07:51;13.50;99.90
75262;DHT22;63859;51.064;4.580;2022-10-31T09:10:20;13.50;99.90
75262;DHT22;63859;51.064;4.580;2022-10-31T09:12:45;13.50;99.90
75262;DHT22;63859;51.064;4.580;2022-10-31T09:15:11;13.50;99.90
75262;DHT22;63859;51.064;4.580;2022-10-31T09:17:36;13.60;99.90
75262;DHT22;63859;51.064;4.580;2022-10-31T09:20:02;13.60;99.90
75262;DHT22;63859;51.064;4.580;2022-10-31T09:22:28;13.70;99.90
75262;DHT22;63859;51.064;4.580;2022-10-31T09:24:53;13.70;99.90
75262;DHT22;63859;51.064;4.580;2022-10-31T09:27:19;13.70;99.90
75262;DHT22;63859;51.064;4.580;2022-10-31T09:29:44;13.80;99.90
75262;DHT22;63859;51.064;4.580;2022-10-31T09:32:10;13.80;99.90
75262;DHT22;63859;51.064;4.580;2022-10-31T09:34:35;13.80;99.90
75262;DHT22;63859;51.064;4.580;2022-10-31T09:37:01;13.90;99.90
75262;DHT22;63859;51.064;4.580;2022-10-31T09:39:27;13.90;99.90
75262;DHT22;63859;51.064;4.580;2022-10-31T09:42:16;14.00;99.90
75262;DHT22;63859;51.064;4.580;2022-10-31T09:45:14;14.10;99.90
75262;DHT22;63859;51.064;4.580;2022-10-31T09:50:29;14.10;99.90
75262;DHT22;63859;51.064;4.580;2022-10-31T09:55:35;14.10;99.90
75262;DHT22;63859;51.064;4.580;2022-10-31T09:58:01;14.10;99.90
75262;DHT22;63859;51.064;4.580;2022-10-31T10:00:27;14.10;99.90
75262;DHT22;63859;51.064;4.580;2022-10-31T10:03:04;14.10;99.90
75262;DHT22;63859;51.064;4.580;2022-10-31T10:06:38;14.10;99.90
75262;DHT22;63859;51.064;4.580;2022-10-31T10:08:56;14.20;99.90
75262;DHT22;63859;51.064;4.580;2022-10-31T10:26:19;14.50;99.90
75262;DHT22;63859;51.064;4.580;2022-10-31T10:28:49;14.50;99.90
75262;DHT22;63859;51.064;4.580;2022-10-31T10:31:21;14.50;99.90
75262;DHT22;63859;51.064;4.580;2022-10-31T10:34:01;14.60;99.90
75262;DHT22;63859;51.064;4.580;2022-10-31T10:36:38;14.70;99.90
75262;DHT22;63859;51.064;4.580;2022-10-31T10:39:17;14.70;99.90
75262;DHT22;63859;51.064;4.580;2022-10-31T10:41:47;14.80;99.90
75262;DHT22;63859;51.064;4.580;2022-10-31T10:44:33;14.80;99.90
75262;DHT22;63859;51.064;4.580;2022-10-31T10:47:17;14.90;99.90
75262;DHT22;63859;51.064;4.580;2022-10-31T10:50:10;14.90;99.90
75262;DHT22;63859;51.064;4.580;2022-10-31T10:52:48;15.00;99.90
75262;DHT22;63859;51.064;4.580;2022-10-31T10:56:35;15.10;99.90
75262;DHT22;63859;51.064;4.580;2022-10-31T10:58:29;15.10;99.90
75262;DHT22;63859;51.064;4.580;2022-10-31T11:00:55;15.20;99.90
75262;DHT22;63859;51.064;4.580;2022-10-31T11:03:20;15.20;99.90
75262;DHT22;63859;51.064;4.580;2022-10-31T11:05:50;15.20;99.90
75262;DHT22;63859;51.064;4.580;2022-10-31T11:08:43;15.20;99.90
75262;DHT22;63859;51.064;4.580;2022-10-31T11:11:25;15.30;99.90
75262;DHT22;63859;51.064;4.580;2022-10-31T11:13:56;15.40;99.90
75262;DHT22;63859;51.064;4.580;2022-10-31T11:16:27;15.40;99.90
75262;DHT22;63859;51.064;4.580;2022-10-31T11:18:54;15.50;99.90
75262;DHT22;63859;51.064;4.580;2022-10-31T11:21:30;15.60;99.90
75262;DHT22;63859;51.064;4.580;2022-10-31T11:24:03;15.60;99.90
75262;DHT22;63859;51.064;4.580;2022-10-31T11:26:29;15.80;99.90
75262;DHT22;63859;51.064;4.580;2022-10-31T11:28:58;15.90;99.90
75262;DHT22;63859;51.064;4.580;2022-10-31T11:31:25;16.00;99.90
75262;DHT22;63859;51.064;4.580;2022-10-31T11:34:03;16.10;99.90
75262;DHT22;63859;51.064;4.580;2022-10-31T11:36:32;16.20;99.90
75262;DHT22;63859;51.064;4.580;2022-10-31T11:39:00;16.30;99.90
75262;DHT22;63859;51.064;4.580;2022-10-31T11:41:35;16.30;99.90
75262;DHT22;63859;51.064;4.580;2022-10-31T11:44:11;16.40;99.90
75262;DHT22;63859;51.064;4.580;2022-10-31T11:46:41;16.40;99.90
75262;DHT22;63859;51.064;4.580;2022-10-31T11:49:16;16.40;99.90
75262;DHT22;63859;51.064;4.580;2022-10-31T11:51:48;16.40;99.90
75262;DHT22;63859;51.064;4.580;2022-10-31T11:54:21;16.50;99.90
75262;DHT22;63859;51.064;4.580;2022-10-31T11:56:47;16.50;99.90
75262;DHT22;63859;51.064;4.580;2022-10-31T11:59:30;16.60;99.90
75262;DHT22;63859;51.064;4.580;2022-10-31T12:01:58;16.60;99.90
75262;DHT22;63859;51.064;4.580;2022-10-31T12:04:33;16.60;99.90
75262;DHT22;63859;51.064;4.580;2022-10-31T12:07:00;16.50;99.90
75262;DHT22;63859;51.064;4.580;2022-10-31T12:09:29;16.60;99.90
75262;DHT22;63859;51.064;4.580;2022-10-31T12:12:15;16.60;99.90
75262;DHT22;63859;51.064;4.580;2022-10-31T12:17:38;16.70;99.90
75262;DHT22;63859;51.064;4.580;2022-10-31T12:25:43;16.90;99.90
75262;DHT22;63859;51.064;4.580;2022-10-31T12:33:54;17.20;99.90
75262;DHT22;63859;51.064;4.580;2022-10-31T12:47:27;18.00;99.90
75262;DHT22;63859;51.064;4.580;2022-10-31T12:53:05;18.50;99.10
75262;DHT22;63859;51.064;4.580;2022-10-31T12:55:55;18.60;98.40
75262;DHT22;63859;51.064;4.580;2022-10-31T12:58:26;18.80;97.90
75262;DHT22;63859;51.064;4.580;2022-10-31T13:01:12;18.90;97.60
75262;DHT22;63859;51.064;4.580;2022-10-31T13:06:22;19.00;97.00
75262;DHT22;63859;51.064;4.580;2022-10-31T13:08:56;18.90;97.00
75262;DHT22;63859;51.064;4.580;2022-10-31T13:11:37;18.90;97.10
75262;DHT22;63859;51.064;4.580;2022-10-31T13:16:47;19.10;96.90
75262;DHT22;63859;51.064;4.580;2022-10-31T13:27:44;19.40;95.50
75262;DHT22;63859;51.064;4.580;2022-10-31T13:30:19;19.40;95.60
75262;DHT22;63859;51.064;4.580;2022-10-31T13:38:54;19.70;95.40
75262;DHT22;63859;51.064;4.580;2022-10-31T13:41:44;19.80;95.20
75262;DHT22;63859;51.064;4.580;2022-10-31T13:46:43;19.70;95.00
75262;DHT22;63859;51.064;4.580;2022-10-31T13:51:50;19.50;95.00
75262;DHT22;63859;51.064;4.580;2022-10-31T13:56:51;19.30;95.20
75262;DHT22;63859;51.064;4.580;2022-10-31T13:59:25;19.20;95.20
75262;DHT22;63859;51.064;4.580;2022-10-31T14:02:00;19.20;95.80
75262;DHT22;63859;51.064;4.580;2022-10-31T14:04:38;19.10;95.60
75262;DHT22;63859;51.064;4.580;2022-10-31T14:07:11;19.10;95.70
75262;DHT22;63859;51.064;4.580;2022-10-31T14:09:48;19.00;95.90
75262;DHT22;63859;51.064;4.580;2022-10-31T14:15:17;18.90;95.70
75262;DHT22;63859;51.064;4.580;2022-10-31T14:17:58;18.80;95.80
75262;DHT22;63859;51.064;4.580;2022-10-31T14:20:39;18.70;95.90
75262;DHT22;63859;51.064;4.580;2022-10-31T14:26:07;18.70;96.20
75262;DHT22;63859;51.064;4.580;2022-10-31T14:28:41;18.60;96.20
75262;DHT22;63859;51.064;4.580;2022-10-31T14:33:52;18.60;96.00
75262;DHT22;63859;51.064;4.580;2022-10-31T14:36:25;18.50;96.00
75262;DHT22;63859;51.064;4.580;2022-10-31T14:39:09;18.50;95.90
75262;DHT22;63859;51.064;4.580;2022-10-31T14:41:50;18.50;96.10
75262;DHT22;63859;51.064;4.580;2022-10-31T14:45:08;18.40;96.10
75262;DHT22;63859;51.064;4.580;2022-10-31T14:52:41;18.30;96.10
75262;DHT22;63859;51.064;4.580;2022-10-31T14:55:11;18.30;96.00
75262;DHT22;63859;51.064;4.580;2022-10-31T14:57:55;18.30;96.10
75262;DHT22;63859;51.064;4.580;2022-10-31T15:00:23;18.30;96.30
75262;DHT22;63859;51.064;4.580;2022-10-31T15:03:18;18.20;96.00
75262;DHT22;63859;51.064;4.580;2022-10-31T15:05:50;18.20;96.00
75262;DHT22;63859;51.064;4.580;2022-10-31T15:08:43;18.10;96.20
75262;DHT22;63859;51.064;4.580;2022-10-31T15:11:14;18.10;96.10
75262;DHT22;63859;51.064;4.580;2022-10-31T15:13:52;18.00;96.20
75262;DHT22;63859;51.064;4.580;2022-10-31T15:16:21;18.00;96.40
75262;DHT22;63859;51.064;4.580;2022-10-31T15:18:54;17.90;96.40
75262;DHT22;63859;51.064;4.580;2022-10-31T15:21:21;17.90;96.50
75262;DHT22;63859;51.064;4.580;2022-10-31T15:23:48;17.90;96.60
75262;DHT22;63859;51.064;4.580;2022-10-31T15:26:17;17.80;96.70
75262;DHT22;63859;51.064;4.580;2022-10-31T15:28:44;17.80;96.90
75262;DHT22;63859;51.064;4.580;2022-10-31T15:31:15;17.70;96.80
75262;DHT22;63859;51.064;4.580;2022-10-31T15:33:44;17.70;96.90
75262;DHT22;63859;51.064;4.580;2022-10-31T15:36:24;17.60;96.90
75262;DHT22;63859;51.064;4.580;2022-10-31T15:38:50;17.50;97.10
75262;DHT22;63859;51.064;4.580;2022-10-31T15:43:54;17.50;97.20
75262;DHT22;63859;51.064;4.580;2022-10-31T15:46:20;17.40;97.30
75262;DHT22;63859;51.064;4.580;2022-10-31T15:48:47;17.30;97.30
75262;DHT22;63859;51.064;4.580;2022-10-31T15:51:13;17.30;97.40
75262;DHT22;63859;51.064;4.580;2022-10-31T15:53:46;17.30;97.50
75262;DHT22;63859;51.064;4.580;2022-10-31T15:56:24;17.20;97.60
75262;DHT22;63859;51.064;4.580;2022-10-31T15:58:52;17.20;97.70
75262;DHT22;63859;51.064;4.580;2022-10-31T16:01:30;17.10;97.90
75262;DHT22;63859;51.064;4.580;2022-10-31T16:06:30;17.00;98.00
75262;DHT22;63859;51.064;4.580;2022-10-31T16:08:56;17.00;98.10
75262;DHT22;63859;51.064;4.580;2022-10-31T16:11:33;16.90;98.20
75262;DHT22;63859;51.064;4.580;2022-10-31T16:14:17;16.90;98.30
75262;DHT22;63859;51.064;4.580;2022-10-31T16:16:50;16.90;98.50
75262;DHT22;63859;51.064;4.580;2022-10-31T16:19:26;16.80;98.50
75262;DHT22;63859;51.064;4.580;2022-10-31T16:21:55;16.80;98.70
75262;DHT22;63859;51.064;4.580;2022-10-31T16:24:33;16.70;98.70
75262;DHT22;63859;51.064;4.580;2022-10-31T16:27:13;16.60;98.80
75262;DHT22;63859;51.064;4.580;2022-10-31T16:29:46;16.70;98.90
75262;DHT22;63859;51.064;4.580;2022-10-31T16:32:51;16.60;98.80
75262;DHT22;63859;51.064;4.580;2022-10-31T16:35:38;16.60;99.00
75262;DHT22;63859;51.064;4.580;2022-10-31T16:38:05;16.50;99.20
75262;DHT22;63859;51.064;4.580;2022-10-31T16:40:31;16.40;99.30
75262;DHT22;63859;51.064;4.580;2022-10-31T16:42:58;16.40;99.40
75262;DHT22;63859;51.064;4.580;2022-10-31T16:45:26;16.40;99.40
75262;DHT22;63859;51.064;4.580;2022-10-31T16:47:52;16.30;99.50
75262;DHT22;63859;51.064;4.580;2022-10-31T16:50:22;16.30;99.70
75262;DHT22;63859;51.064;4.580;2022-10-31T16:52:48;16.30;99.70
75262;DHT22;63859;51.064;4.580;2022-10-31T16:55:15;16.30;99.60
75262;DHT22;63859;51.064;4.580;2022-10-31T16:57:44;16.20;99.80
75262;DHT22;63859;51.064;4.580;2022-10-31T17:00:15;16.20;99.80
75262;DHT22;63859;51.064;4.580;2022-10-31T17:02:41;16.20;99.80
75262;DHT22;63859;51.064;4.580;2022-10-31T17:05:11;16.20;99.90
75262;DHT22;63859;51.064;4.580;2022-10-31T17:07:37;16.20;99.80
75262;DHT22;63859;51.064;4.580;2022-10-31T17:10:03;16.10;99.90
75262;DHT22;63859;51.064;4.580;2022-10-31T17:12:29;16.10;99.90
75262;DHT22;63859;51.064;4.580;2022-10-31T17:14:55;16.10;99.90
75262;DHT22;63859;51.064;4.580;2022-10-31T17:17:21;16.00;99.90
75262;DHT22;63859;51.064;4.580;2022-10-31T17:19:46;16.00;99.90
75262;DHT22;63859;51.064;4.580;2022-10-31T17:22:13;15.90;99.90
75262;DHT22;63859;51.064;4.580;2022-10-31T17:24:39;15.90;99.90
75262;DHT22;63859;51.064;4.580;2022-10-31T17:27:05;15.90;99.90
75262;DHT22;63859;51.064;4.580;2022-10-31T17:29:30;15.90;99.90
75262;DHT22;63859;51.064;4.580;2022-10-31T17:31:57;15.80;99.90
75262;DHT22;63859;51.064;4.580;2022-10-31T17:34:24;15.80;99.90
75262;DHT22;63859;51.064;4.580;2022-10-31T17:36:50;15.80;99.90
75262;DHT22;63859;51.064;4.580;2022-10-31T17:39:16;15.70;99.90
75262;DHT22;63859;51.064;4.580;2022-10-31T17:41:42;15.80;99.90
75262;DHT22;63859;51.064;4.580;2022-10-31T17:44:09;15.70;99.90
75262;DHT22;63859;51.064;4.580;2022-10-31T17:46:35;15.70;99.90
75262;DHT22;63859;51.064;4.580;2022-10-31T17:49:01;15.70;99.90